createdAt,value
2018-06-20T00:00:40.189Z,102511.45
2018-06-20T00:03:42.314Z,102503.19
2018-06-20T00:06:45.440Z,102510.87
2018-06-20T00:09:47.504Z,102515.63
2018-06-20T00:12:50.795Z,102520.44
2018-06-20T00:15:52.819Z,102525.51
2018-06-20T00:19:00.670Z,102525.18
2018-06-20T00:22:02.732Z,102522.14
2018-06-20T00:25:04.822Z,102524.01
2018-06-20T00:28:07.996Z,102519.03
2018-06-20T00:31:10.164Z,102520.43
2018-06-20T00:34:12.295Z,102523.59
2018-06-20T00:37:14.407Z,102521.78
2018-06-20T00:40:16.455Z,102517.00
2018-06-20T00:43:18.540Z,102515.22
2018-06-20T00:46:21.900Z,102512.62
2018-06-20T00:49:24.010Z,102517.35
2018-06-20T00:52:25.961Z,102515.88
2018-06-20T00:55:39.899Z,102509.46
2018-06-20T00:58:41.975Z,102511.00
2018-06-20T01:01:44.021Z,102509.60
2018-06-20T01:04:46.122Z,102511.95
2018-06-20T01:07:48.179Z,102508.55
2018-06-20T01:10:50.782Z,102504.63
2018-06-20T01:13:52.863Z,102506.27
2018-06-20T01:16:55.119Z,102504.98
2018-06-20T01:19:57.275Z,102505.64
2018-06-20T01:22:59.413Z,102506.54
2018-06-20T01:26:01.656Z,102502.81
2018-06-20T01:29:03.860Z,102496.65
2018-06-20T01:32:06.030Z,102494.80
2018-06-20T01:35:08.146Z,102495.30
2018-06-20T01:38:10.195Z,102489.06
2018-06-20T01:41:12.275Z,102488.91
2018-06-20T01:44:14.337Z,102484.48
2018-06-20T01:47:16.406Z,102483.79
2018-06-20T01:50:20.797Z,102489.06
2018-06-20T01:53:22.927Z,102489.82
2018-06-20T01:56:24.878Z,102487.87
2018-06-20T01:59:26.913Z,102482.57
2018-06-20T02:02:28.970Z,102484.93
2018-06-20T02:05:30.987Z,102490.36
2018-06-20T02:08:33.034Z,102489.93
2018-06-20T02:11:35.099Z,102488.82
2018-06-20T02:14:37.151Z,102490.61
2018-06-20T02:17:39.256Z,102488.33
2018-06-20T02:20:41.312Z,102484.44
2018-06-20T02:23:43.642Z,102477.88
2018-06-20T02:26:45.721Z,102479.14
2018-06-20T02:29:47.735Z,102479.23
2018-06-20T02:32:49.806Z,102486.98
2018-06-20T02:35:52.151Z,102484.99
2018-06-20T02:38:54.263Z,102489.02
2018-06-20T02:41:56.316Z,102488.26
2018-06-20T02:44:58.370Z,102492.07
2018-06-20T02:48:00.448Z,102490.04
2018-06-20T02:51:02.590Z,102482.99
2018-06-20T02:54:04.717Z,102480.24
2018-06-20T02:57:06.770Z,102474.92
2018-06-20T03:00:08.849Z,102475.72
2018-06-20T03:03:10.964Z,102478.12
2018-06-20T03:06:13.075Z,102474.41
2018-06-20T03:09:21.473Z,102477.12
2018-06-20T03:12:23.578Z,102475.30
2018-06-20T03:15:25.607Z,102480.55
2018-06-20T03:18:27.838Z,102474.99
2018-06-20T03:21:29.939Z,102477.82
2018-06-20T03:24:32.938Z,102472.58
2018-06-20T03:27:34.997Z,102474.36
2018-06-20T03:30:37.079Z,102474.11
2018-06-20T03:33:39.156Z,102474.38
2018-06-20T03:36:41.234Z,102469.57
2018-06-20T03:39:43.264Z,102468.31
2018-06-20T03:42:45.371Z,102469.98
2018-06-20T03:45:47.436Z,102467.18
2018-06-20T03:48:49.508Z,102464.46
2018-06-20T03:51:51.568Z,102465.67
2018-06-20T03:54:53.647Z,102459.65
2018-06-20T03:57:55.799Z,102460.10
2018-06-20T04:00:57.767Z,102459.34
2018-06-20T04:03:59.842Z,102456.03
2018-06-20T04:07:01.999Z,102448.99
2018-06-20T04:10:04.095Z,102452.37
2018-06-20T04:13:06.195Z,102451.48
2018-06-20T04:16:08.266Z,102453.76
2018-06-20T04:19:10.368Z,102447.50
2018-06-20T04:22:13.459Z,102453.51
2018-06-20T04:25:15.552Z,102454.83
2018-06-20T04:28:17.630Z,102451.31
2018-06-20T04:31:19.571Z,102448.67
2018-06-20T04:34:22.563Z,102446.42
2018-06-20T04:37:24.658Z,102445.14
2018-06-20T04:40:26.826Z,102449.12
2018-06-20T04:43:28.906Z,102444.40
2018-06-20T04:46:31.956Z,102443.26
2018-06-20T04:49:34.034Z,102443.78
2018-06-20T04:52:36.114Z,102438.06
2018-06-20T04:55:38.219Z,102443.87
2018-06-20T04:58:40.227Z,102445.07
2018-06-20T05:01:42.367Z,102445.34
2018-06-20T05:04:44.471Z,102449.53
2018-06-20T05:07:46.546Z,102445.83
2018-06-20T05:10:48.633Z,102445.06
2018-06-20T05:13:50.583Z,102445.70
2018-06-20T05:16:53.361Z,102440.11
2018-06-20T05:19:55.456Z,102437.12
2018-06-20T05:22:57.499Z,102442.04
2018-06-20T05:25:59.688Z,102440.78
2018-06-20T05:29:02.083Z,102444.79
2018-06-20T05:32:04.734Z,102444.99
2018-06-20T05:35:07.147Z,102449.89
2018-06-20T05:38:18.107Z,102442.88
2018-06-20T05:41:20.586Z,102441.21
2018-06-20T05:44:24.242Z,102441.08
2018-06-20T05:47:27.112Z,102440.43
2018-06-20T05:50:29.274Z,102442.62
2018-06-20T05:53:31.760Z,102440.41
2018-06-20T05:56:33.883Z,102441.22
2018-06-20T05:59:36.311Z,102438.60
2018-06-20T06:02:38.840Z,102440.71
2018-06-20T06:05:41.321Z,102438.08
2018-06-20T06:08:44.836Z,102443.78
2018-06-20T06:11:47.237Z,102438.14
2018-06-20T06:14:49.952Z,102436.01
2018-06-20T06:17:53.396Z,102431.02
2018-06-20T06:20:55.973Z,102427.58
2018-06-20T06:23:58.496Z,102430.61
2018-06-20T06:27:01.022Z,102427.92
2018-06-20T06:30:03.450Z,102430.95
2018-06-20T06:33:05.462Z,102425.59
2018-06-20T06:36:07.588Z,102421.74
2018-06-20T06:39:11.378Z,102416.64
2018-06-20T06:42:14.053Z,102410.58
2018-06-20T06:45:16.504Z,102407.57
2018-06-20T06:48:18.594Z,102404.31
2018-06-20T06:51:20.555Z,102406.94
2018-06-20T06:54:23.616Z,102409.97
2018-06-20T06:57:26.214Z,102404.81
2018-06-20T07:00:28.628Z,102406.92
2018-06-20T07:03:31.202Z,102400.78
2018-06-20T07:06:33.250Z,102401.69
2018-06-20T07:09:35.801Z,102395.88
2018-06-20T07:12:39.338Z,102395.36
2018-06-20T07:15:41.699Z,102389.91
2018-06-20T07:18:43.767Z,102393.20
2018-06-20T07:21:46.291Z,102384.73
2018-06-20T07:24:48.950Z,102385.42
2018-06-20T07:27:52.320Z,102382.56
2018-06-20T07:30:54.832Z,102372.29
2018-06-20T07:33:56.891Z,102376.86
2018-06-20T07:36:59.715Z,102369.28
2018-06-20T07:40:01.928Z,102368.86
2018-06-20T07:43:04.538Z,102364.80
2018-06-20T07:46:07.151Z,102366.70
2018-06-20T07:49:09.502Z,102362.82
2018-06-20T07:52:11.632Z,102357.31
2018-06-20T07:55:14.078Z,102362.54
2018-06-20T07:58:22.643Z,102358.29
2018-06-20T08:02:39.894Z,102357.90
2018-06-20T08:06:47.967Z,102352.03
2018-06-20T08:09:56.052Z,102350.55
2018-06-20T08:13:03.984Z,102340.68
2018-06-20T08:16:11.931Z,102338.01
2018-06-20T08:19:20.038Z,102332.89
2018-06-20T08:22:22.422Z,102334.09
2018-06-20T08:25:24.776Z,102333.26
2018-06-20T08:28:27.189Z,102331.46
2018-06-20T08:31:29.271Z,102319.05
2018-06-20T08:34:31.247Z,102313.31
2018-06-20T08:37:33.902Z,102314.93
2018-06-20T08:40:36.410Z,102310.48
2018-06-20T08:43:38.925Z,102314.42
2018-06-20T08:46:41.288Z,102309.03
2018-06-20T08:49:43.370Z,102310.05
2018-06-20T08:52:45.947Z,102313.16
2018-06-20T08:55:48.357Z,102312.66
2018-06-20T08:58:50.437Z,102303.29
2018-06-20T09:01:52.439Z,102303.53
2018-06-20T09:05:00.605Z,102305.01
2018-06-20T09:08:08.531Z,102305.15
2018-06-20T09:11:17.282Z,102299.03
2018-06-20T09:14:19.295Z,102292.93
2018-06-20T09:17:27.187Z,102295.50
2018-06-20T09:20:29.287Z,102292.03
2018-06-20T09:23:31.275Z,102290.04
2018-06-20T09:26:33.362Z,102289.55
2018-06-20T09:29:35.448Z,102289.07
2018-06-20T09:32:38.427Z,102281.39
2018-06-20T09:35:40.527Z,102280.17
2018-06-20T09:38:43.645Z,102281.83
2018-06-20T09:41:45.687Z,102277.55
2018-06-20T09:44:47.870Z,102281.01
2018-06-20T09:47:50.026Z,102272.74
2018-06-20T09:50:54.840Z,102274.66
2018-06-20T09:53:56.910Z,102268.45
2018-06-20T09:56:58.972Z,102268.69
2018-06-20T10:00:06.717Z,102267.18
2018-06-20T10:03:14.520Z,102268.57
2018-06-20T10:06:22.531Z,102260.89
2018-06-20T10:09:30.578Z,102260.67
2018-06-20T10:12:38.299Z,102256.45
2018-06-20T10:15:40.371Z,102252.88
2018-06-20T10:18:42.444Z,102247.23
2018-06-20T10:21:44.544Z,102247.98
2018-06-20T10:24:46.593Z,102241.74
2018-06-20T10:27:48.652Z,102237.30
2018-06-20T10:30:52.682Z,102231.49
2018-06-20T10:33:55.784Z,102232.55
2018-06-20T10:36:57.760Z,102225.09
2018-06-20T10:39:59.780Z,102223.55
2018-06-20T10:43:01.772Z,102220.02
2018-06-20T10:46:09.737Z,102214.28
2018-06-20T10:49:12.011Z,102214.86
2018-06-20T10:52:14.113Z,102204.60
2018-06-20T10:55:17.173Z,102203.51
2018-06-20T10:58:24.900Z,102204.19
2018-06-20T11:01:32.793Z,102194.66
2018-06-20T11:04:41.757Z,102194.77
2018-06-20T11:07:49.446Z,102188.62
2018-06-20T11:10:57.256Z,102184.94
2018-06-20T11:13:59.311Z,102186.95
2018-06-20T11:17:01.390Z,102178.33
2018-06-20T11:20:09.292Z,102172.25
2018-06-20T11:23:11.351Z,102167.51
2018-06-20T11:26:13.291Z,102164.89
2018-06-20T11:29:15.551Z,102161.14
2018-06-20T11:32:17.558Z,102158.64
2018-06-20T11:35:19.995Z,102149.29
2018-06-20T11:38:22.091Z,102150.26
2018-06-20T11:41:24.914Z,102138.10
2018-06-20T11:44:27.072Z,102134.36
2018-06-20T11:47:34.982Z,102130.50
2018-06-20T11:50:37.097Z,102124.85
2018-06-20T11:53:39.226Z,102120.35
2018-06-20T11:56:41.198Z,102119.29
2018-06-20T11:59:49.096Z,102110.13
2018-06-20T12:02:57.047Z,102111.24
2018-06-20T12:06:04.898Z,102105.92
2018-06-20T12:09:12.820Z,102104.94
2018-06-20T12:12:20.476Z,102099.70
2018-06-20T12:15:29.187Z,102093.62
2018-06-20T12:18:36.928Z,102087.03
2018-06-20T12:21:44.622Z,102085.54
2018-06-20T12:24:55.842Z,102087.19
2018-06-20T12:28:04.762Z,102085.52
2018-06-20T12:31:12.715Z,102074.14
2018-06-20T12:34:20.551Z,102072.60
2018-06-20T12:37:28.470Z,102071.25
2018-06-20T12:40:36.506Z,102073.38
2018-06-20T12:43:44.410Z,102065.70
2018-06-20T12:46:50.626Z,102065.44
2018-06-20T12:49:58.634Z,102056.56
2018-06-20T12:53:00.971Z,102056.63
2018-06-20T12:56:03.037Z,102050.84
2018-06-20T12:59:05.277Z,102049.35
2018-06-20T13:02:07.339Z,102047.92
2018-06-20T13:05:09.390Z,102040.55
2018-06-20T13:08:11.747Z,102039.14
2018-06-20T13:11:13.889Z,102035.63
2018-06-20T13:14:16.008Z,102032.77
2018-06-20T13:17:18.094Z,102035.32
2018-06-20T13:20:20.463Z,102027.24
2018-06-20T13:23:22.387Z,102028.64
2018-06-20T13:26:25.504Z,102020.69
2018-06-20T13:29:27.705Z,102015.81
2018-06-20T13:32:35.451Z,102010.33
2018-06-20T13:36:45.047Z,101998.38
2018-06-20T13:39:52.858Z,101993.78
2018-06-20T13:43:01.551Z,101998.49
2018-06-20T13:46:09.502Z,101992.35
2018-06-20T13:49:11.635Z,101990.51
2018-06-20T13:52:13.857Z,101981.32
2018-06-20T13:55:15.793Z,101982.20
2018-06-20T13:58:18.613Z,101986.25
2018-06-20T14:01:20.738Z,101987.97
2018-06-20T14:04:22.849Z,101985.10
2018-06-20T14:07:27.211Z,101991.10
2018-06-20T14:10:30.333Z,101987.15
2018-06-20T14:13:33.422Z,101986.08
2018-06-20T14:16:35.523Z,101986.41
2018-06-20T14:19:43.495Z,101983.01
2018-06-20T14:22:45.571Z,101978.88
2018-06-20T14:25:47.532Z,101977.71
2018-06-20T14:28:49.671Z,101970.51
2018-06-20T14:31:57.614Z,101967.65
2018-06-20T14:35:05.309Z,101969.77
2018-06-20T14:38:13.105Z,101958.54
2018-06-20T14:41:19.695Z,101951.57
2018-06-20T14:44:21.799Z,101949.23
2018-06-20T14:47:23.935Z,101950.80
2018-06-20T14:50:27.270Z,101944.51
2018-06-20T14:53:29.300Z,101940.71
2018-06-20T14:56:31.273Z,101935.05
2018-06-20T14:59:33.332Z,101934.78
2018-06-20T15:02:35.658Z,101932.85
2018-06-20T15:05:37.820Z,101928.88
2018-06-20T15:08:39.830Z,101931.08
2018-06-20T15:11:41.922Z,101921.52
2018-06-20T15:14:43.951Z,101923.28
2018-06-20T15:17:46.124Z,101921.85
2018-06-20T15:20:48.359Z,101922.80
2018-06-20T15:23:50.458Z,101918.05
2018-06-20T15:26:58.269Z,101915.07
2018-06-20T15:30:05.931Z,101913.60
2018-06-20T15:33:13.803Z,101905.12
2018-06-20T15:36:22.663Z,101900.15
2018-06-20T15:39:25.619Z,101896.66
2018-06-20T15:42:27.683Z,101893.94
2018-06-20T15:45:29.847Z,101891.82
2018-06-20T15:48:32.179Z,101886.34
2018-06-20T15:51:34.274Z,101890.79
2018-06-20T15:54:36.374Z,101883.05
2018-06-20T15:57:40.489Z,101879.09
2018-06-20T16:00:42.545Z,101879.08
2018-06-20T16:03:44.716Z,101874.68
2018-06-20T16:06:47.063Z,101872.80
2018-06-20T16:09:56.734Z,101863.90
2018-06-20T16:12:59.852Z,101871.50
2018-06-20T16:16:01.964Z,101869.83
2018-06-20T16:19:09.789Z,101862.79
2018-06-20T16:22:17.488Z,101864.69
2018-06-20T16:25:25.996Z,101867.49
2018-06-20T16:28:33.710Z,101862.18
2018-06-20T16:31:35.779Z,101861.15
2018-06-20T16:34:37.738Z,101855.33
2018-06-20T16:37:39.846Z,101850.85
2018-06-20T16:40:41.913Z,101855.72
2018-06-20T16:43:44.025Z,101850.41
2018-06-20T16:46:46.092Z,101849.49
2018-06-20T16:49:48.239Z,101844.72
2018-06-20T16:52:50.502Z,101847.27
2018-06-20T16:55:53.017Z,101847.61
2018-06-20T16:58:55.940Z,101845.15
2018-06-20T17:02:04.079Z,101841.44
2018-06-20T17:05:06.875Z,101840.41
2018-06-20T17:08:08.882Z,101837.52
2018-06-20T17:11:10.955Z,101836.35
2018-06-20T17:14:18.790Z,101833.64
2018-06-20T17:17:26.805Z,101832.13
2018-06-20T17:20:34.578Z,101828.25
2018-06-20T17:23:42.441Z,101826.99
2018-06-20T17:26:44.595Z,101828.06
2018-06-20T17:29:47.660Z,101826.69
2018-06-20T17:32:49.987Z,101823.71
2018-06-20T17:35:52.120Z,101823.22
2018-06-20T17:38:54.269Z,101819.73
2018-06-20T17:41:57.485Z,101825.27
2018-06-20T17:44:59.665Z,101819.45
2018-06-20T17:48:01.740Z,101818.49
2018-06-20T17:51:03.795Z,101817.02
2018-06-20T17:54:05.856Z,101812.98
2018-06-20T17:57:08.088Z,101818.92
2018-06-20T18:00:10.239Z,101814.65
2018-06-20T18:03:12.272Z,101818.51
2018-06-20T18:06:20.173Z,101811.44
2018-06-20T18:09:27.829Z,101818.63
2018-06-20T18:12:32.049Z,101818.53
2018-06-20T18:15:39.779Z,101819.46
2018-06-20T18:18:42.019Z,101816.69
2018-06-20T18:21:44.170Z,101816.65
2018-06-20T18:24:46.336Z,101809.93
2018-06-20T18:27:52.479Z,101815.43
2018-06-20T18:30:54.477Z,101809.95
2018-06-20T18:33:57.189Z,101811.40
2018-06-20T18:37:00.349Z,101815.83
2018-06-20T18:40:04.992Z,101816.70
2018-06-20T18:43:08.016Z,101814.72
2018-06-20T18:46:12.112Z,101816.76
2018-06-20T18:49:14.254Z,101809.50
2018-06-20T18:52:16.559Z,101811.00
2018-06-20T18:55:18.559Z,101816.02
2018-06-20T18:58:26.268Z,101811.32
2018-06-20T19:01:34.190Z,101812.98
2018-06-20T19:04:41.978Z,101813.48
2018-06-20T19:08:48.769Z,101817.65
2018-06-20T19:11:50.832Z,101813.23
2018-06-20T19:14:54.985Z,101810.29
2018-06-20T19:17:57.568Z,101811.91
2018-06-20T19:20:59.720Z,101806.36
2018-06-20T19:24:01.780Z,101811.88
2018-06-20T19:27:03.900Z,101813.80
2018-06-20T19:30:06.109Z,101818.11
2018-06-20T19:33:08.497Z,101819.99
2018-06-20T19:36:10.634Z,101823.49
2018-06-20T19:39:18.621Z,101823.91
2018-06-20T19:42:22.454Z,101828.35
2018-06-20T19:45:24.641Z,101829.62
2018-06-20T19:48:28.246Z,101829.93
2018-06-20T19:51:30.422Z,101831.48
2018-06-20T19:54:32.629Z,101836.82
2018-06-20T19:57:34.641Z,101835.70
2018-06-20T20:00:36.717Z,101834.90
2018-06-20T20:03:38.799Z,101839.80
2018-06-20T20:06:40.830Z,101839.62
2018-06-20T20:09:42.963Z,101840.73
2018-06-20T20:12:45.978Z,101838.93
2018-06-20T20:15:50.330Z,101843.97
2018-06-20T20:18:52.412Z,101843.97
2018-06-20T20:21:54.463Z,101848.25
2018-06-20T20:24:57.151Z,101847.46
2018-06-20T20:27:59.233Z,101849.06
2018-06-20T20:31:01.440Z,101849.67
2018-06-20T20:34:03.554Z,101855.80
2018-06-20T20:37:05.669Z,101853.11
2018-06-20T20:40:07.798Z,101852.87
2018-06-20T20:43:09.974Z,101848.61
2018-06-20T20:46:11.907Z,101846.96
2018-06-20T20:49:13.995Z,101848.00
2018-06-20T20:52:15.971Z,101846.10
2018-06-20T20:55:18.043Z,101842.91
2018-06-20T20:58:20.097Z,101850.62
2018-06-20T21:01:22.146Z,101846.04
2018-06-20T21:04:24.271Z,101846.50
2018-06-20T21:07:26.412Z,101851.94
2018-06-20T21:10:29.896Z,101852.21
2018-06-20T21:13:31.875Z,101856.58
2018-06-20T21:16:33.934Z,101852.21
2018-06-20T21:19:35.891Z,101852.95
2018-06-20T21:22:37.969Z,101846.88
2018-06-20T21:25:39.938Z,101844.14
2018-06-20T21:28:42.024Z,101842.14
2018-06-20T21:31:44.216Z,101844.16
2018-06-20T21:34:46.144Z,101846.61
2018-06-20T21:37:48.262Z,101840.19
2018-06-20T21:40:50.438Z,101842.32
2018-06-20T21:43:52.466Z,101838.72
2018-06-20T21:46:54.554Z,101834.41
2018-06-20T21:49:58.177Z,101835.98
2018-06-20T21:53:00.283Z,101842.10
2018-06-20T21:56:02.215Z,101845.50
2018-06-20T21:59:04.235Z,101841.88
2018-06-20T22:02:25.091Z,101843.59
2018-06-20T22:05:28.043Z,101844.94
2018-06-20T22:08:30.115Z,101843.27
2018-06-20T22:11:37.392Z,101840.10
2018-06-20T22:14:39.462Z,101840.76
2018-06-20T22:17:41.668Z,101833.25
2018-06-20T22:20:43.715Z,101828.36
2018-06-20T22:23:45.762Z,101829.65
2018-06-20T22:26:48.040Z,101826.93
2018-06-20T22:29:50.179Z,101827.49
2018-06-20T22:32:52.365Z,101823.92
2018-06-20T22:35:55.424Z,101824.04
2018-06-20T22:38:58.036Z,101818.23
2018-06-20T22:42:02.025Z,101819.24
2018-06-20T22:45:04.288Z,101817.32
2018-06-20T22:48:06.241Z,101813.27
2018-06-20T22:51:08.265Z,101809.01
2018-06-20T22:54:10.231Z,101815.94
2018-06-20T22:57:12.327Z,101815.14
2018-06-20T23:00:14.395Z,101812.84
2018-06-20T23:03:16.427Z,101807.33
2018-06-20T23:06:18.502Z,101806.05
2018-06-20T23:09:20.566Z,101802.56
2018-06-20T23:12:22.567Z,101800.59
2018-06-20T23:15:24.923Z,101800.59
2018-06-20T23:18:27.850Z,101798.52
2018-06-20T23:21:29.875Z,101800.76
2018-06-20T23:24:31.974Z,101800.16
2018-06-20T23:27:34.007Z,101799.24
2018-06-20T23:30:35.999Z,101804.05
2018-06-20T23:33:39.052Z,101793.02
2018-06-20T23:36:41.067Z,101795.68
2018-06-20T23:39:43.106Z,101790.84
2018-06-20T23:42:45.068Z,101792.43
2018-06-20T23:45:47.148Z,101795.01
2018-06-20T23:48:49.240Z,101790.85
2018-06-20T23:51:51.291Z,101788.22
2018-06-20T23:54:53.351Z,101785.49
2018-06-20T23:57:55.259Z,101783.88
